DLH5CW EDDP-EDDF
Flight info
| Callsign | DLH5CW |
|---|---|
| Flight time | N/A |
| Altitude | 22000 |
| Route | ORTAG5N ORTAG T177 ODIPI/N0351F210 T157 KERAX KERAX5A |
| Aircraft | A319/M-SDE2E3FGIJ1LORWXYZ/HB1 |
Departure
| Time | 2026-05-06 14:52 |
|---|---|
| Airport | Leipzig/Halle Airport (EDDP) |
Arrival
| Time | N/A |
|---|---|
| Airport | Frankfurt Main Airport (EDDF) |
| Time | Latitude | Longitude | Altitude | Speed | Heading |
|---|---|---|---|---|---|
| 2026-05-06 14:24 | 51.41921 | 12.21957 | 432 ft | 0 kts | 15° |
| 2026-05-06 14:43 | 51.41908 | 12.21952 | 426 ft | 4 kts | 16° |
| 2026-05-06 14:43 | 51.41883 | 12.21939 | 443 ft | 4 kts | 19° |
| 2026-05-06 14:43 | 51.41857 | 12.21924 | 437 ft | 4 kts | 27° |
| 2026-05-06 14:43 | 51.41836 | 12.21900 | 428 ft | 4 kts | 58° |
| 2026-05-06 14:44 | 51.41831 | 12.21878 | 432 ft | 0 kts | 105° |
| 2026-05-06 14:47 | 51.41824 | 12.21919 | 429 ft | 8 kts | 105° |
| 2026-05-06 14:48 | 51.41808 | 12.22017 | 439 ft | 12 kts | 105° |
| 2026-05-06 14:48 | 51.41775 | 12.22208 | 450 ft | 20 kts | 105° |
| 2026-05-06 14:48 | 51.41741 | 12.22410 | 456 ft | 18 kts | 105° |
| 2026-05-06 14:48 | 51.41710 | 12.22593 | 460 ft | 18 kts | 105° |
| 2026-05-06 14:49 | 51.41678 | 12.22778 | 461 ft | 17 kts | 105° |
| 2026-05-06 14:49 | 51.41643 | 12.22977 | 464 ft | 21 kts | 105° |
| 2026-05-06 14:49 | 51.41604 | 12.23201 | 462 ft | 21 kts | 103° |
| 2026-05-06 14:49 | 51.41605 | 12.23447 | 463 ft | 24 kts | 85° |
| 2026-05-06 14:50 | 51.41617 | 12.23710 | 468 ft | 23 kts | 86° |
| 2026-05-06 14:50 | 51.41629 | 12.23962 | 470 ft | 22 kts | 85° |
| 2026-05-06 14:50 | 51.41641 | 12.24198 | 475 ft | 20 kts | 85° |
| 2026-05-06 14:50 | 51.41651 | 12.24433 | 474 ft | 22 kts | 86° |
| 2026-05-06 14:51 | 51.41598 | 12.24566 | 474 ft | 16 kts | 177° |
| 2026-05-06 14:51 | 51.41491 | 12.24531 | 475 ft | 11 kts | 193° |
| 2026-05-06 14:51 | 51.41421 | 12.24505 | 474 ft | 12 kts | 193° |
| 2026-05-06 14:51 | 51.41348 | 12.24415 | 470 ft | 16 kts | 255° |
| 2026-05-06 14:52 | 51.41336 | 12.24193 | 472 ft | 40 kts | 265° |
| 2026-05-06 14:52 | 51.41295 | 12.23276 | 466 ft | 121 kts | 265° |
| 2026-05-06 14:52 | 51.41233 | 12.21641 | 679 ft | 157 kts | 272° |
| 2026-05-06 14:52 | 51.41168 | 12.19893 | 1444 ft | 157 kts | 267° |
| 2026-05-06 14:53 | 51.41078 | 12.18117 | 2029 ft | 169 kts | 265° |
| 2026-05-06 14:53 | 51.40975 | 12.16118 | 2463 ft | 191 kts | 265° |
| 2026-05-06 14:53 | 51.40862 | 12.13875 | 2869 ft | 215 kts | 264° |
| 2026-05-06 14:53 | 51.40735 | 12.11341 | 3377 ft | 240 kts | 264° |
| 2026-05-06 14:54 | 51.40595 | 12.08574 | 4157 ft | 255 kts | 264° |
| 2026-05-06 14:54 | 51.40453 | 12.05718 | 5218 ft | 259 kts | 264° |
| 2026-05-06 14:54 | 51.40311 | 12.02827 | 6323 ft | 261 kts | 263° |
| 2026-05-06 14:54 | 51.40168 | 11.99909 | 7347 ft | 265 kts | 263° |
| 2026-05-06 14:55 | 51.40025 | 11.96955 | 8351 ft | 269 kts | 263° |
| 2026-05-06 14:55 | 51.39880 | 11.93944 | 9360 ft | 273 kts | 263° |
| 2026-05-06 14:55 | 51.39507 | 11.90952 | 10167 ft | 282 kts | 247° |
| 2026-05-06 14:55 | 51.38497 | 11.88132 | 10619 ft | 301 kts | 236° |
| 2026-05-06 14:56 | 51.37333 | 11.85288 | 11421 ft | 308 kts | 236° |
| 2026-05-06 14:56 | 51.36142 | 11.82413 | 12316 ft | 313 kts | 236° |
| 2026-05-06 14:56 | 51.35343 | 11.80481 | 12903 ft | 315 kts | 236° |
| 2026-05-06 14:56 | 51.34128 | 11.77536 | 13769 ft | 319 kts | 236° |
| 2026-05-06 14:57 | 51.32924 | 11.74525 | 14555 ft | 323 kts | 237° |
| 2026-05-06 14:57 | 51.31745 | 11.71440 | 15349 ft | 326 kts | 238° |
| 2026-05-06 14:57 | 51.30574 | 11.68309 | 16132 ft | 330 kts | 238° |
| 2026-05-06 14:57 | 51.29396 | 11.65151 | 16915 ft | 333 kts | 238° |
| 2026-05-06 14:58 | 51.28202 | 11.61962 | 17688 ft | 336 kts | 238° |
| 2026-05-06 14:58 | 51.26987 | 11.58742 | 18401 ft | 340 kts | 237° |
| 2026-05-06 14:58 | 51.25756 | 11.55497 | 19081 ft | 343 kts | 238° |
| 2026-05-06 14:58 | 51.24514 | 11.52236 | 19780 ft | 345 kts | 238° |
| 2026-05-06 14:59 | 51.23255 | 11.48936 | 20419 ft | 350 kts | 238° |
| 2026-05-06 14:59 | 51.21980 | 11.45603 | 21045 ft | 354 kts | 238° |
| 2026-05-06 14:59 | 51.20688 | 11.42232 | 21601 ft | 358 kts | 238° |
| 2026-05-06 14:59 | 51.19363 | 11.38778 | 21753 ft | 374 kts | 238° |
| 2026-05-06 15:00 | 51.17982 | 11.35179 | 21778 ft | 385 kts | 238° |
| 2026-05-06 15:00 | 51.16581 | 11.31531 | 21781 ft | 387 kts | 238° |
| 2026-05-06 15:00 | 51.15170 | 11.27868 | 21780 ft | 388 kts | 238° |
| 2026-05-06 15:00 | 51.13760 | 11.24213 | 21770 ft | 388 kts | 238° |
| 2026-05-06 15:01 | 51.12343 | 11.20547 | 21769 ft | 388 kts | 238° |
| 2026-05-06 15:01 | 51.10929 | 11.16892 | 21764 ft | 389 kts | 238° |
| 2026-05-06 15:01 | 51.09509 | 11.13224 | 21762 ft | 389 kts | 238° |
| 2026-05-06 15:01 | 51.08092 | 11.09575 | 21759 ft | 389 kts | 238° |
| 2026-05-06 15:02 | 51.06669 | 11.05914 | 21756 ft | 389 kts | 238° |
| 2026-05-06 15:02 | 51.05247 | 11.02261 | 21747 ft | 389 kts | 238° |
| 2026-05-06 15:02 | 51.03823 | 10.98605 | 21742 ft | 389 kts | 238° |
| 2026-05-06 15:02 | 51.02395 | 10.94944 | 21740 ft | 390 kts | 238° |
| 2026-05-06 15:03 | 51.00969 | 10.91290 | 21755 ft | 390 kts | 238° |
| 2026-05-06 15:03 | 50.99538 | 10.87628 | 21761 ft | 390 kts | 238° |
| 2026-05-06 15:03 | 50.98105 | 10.83972 | 21766 ft | 390 kts | 238° |
| 2026-05-06 15:03 | 50.96676 | 10.80329 | 21767 ft | 389 kts | 238° |
| 2026-05-06 15:04 | 50.95243 | 10.76679 | 21770 ft | 389 kts | 238° |
| 2026-05-06 15:04 | 50.93811 | 10.73036 | 21771 ft | 389 kts | 238° |
| 2026-05-06 15:04 | 50.92378 | 10.69395 | 21772 ft | 389 kts | 238° |
| 2026-05-06 15:04 | 50.90946 | 10.65757 | 21774 ft | 389 kts | 238° |
| 2026-05-06 15:05 | 50.89512 | 10.62122 | 21771 ft | 389 kts | 238° |
| 2026-05-06 15:05 | 50.88078 | 10.58499 | 21773 ft | 389 kts | 238° |
| 2026-05-06 15:05 | 50.86637 | 10.54869 | 21772 ft | 389 kts | 238° |
| 2026-05-06 15:05 | 50.85196 | 10.51243 | 21760 ft | 390 kts | 238° |
| 2026-05-06 15:06 | 50.83755 | 10.47607 | 21755 ft | 390 kts | 238° |
| 2026-05-06 15:06 | 50.82310 | 10.43966 | 21754 ft | 391 kts | 238° |
| 2026-05-06 15:06 | 50.80878 | 10.40372 | 21756 ft | 392 kts | 238° |
| 2026-05-06 15:06 | 50.79423 | 10.36730 | 21754 ft | 392 kts | 238° |
| 2026-05-06 15:07 | 50.77945 | 10.33040 | 21769 ft | 392 kts | 237° |
| 2026-05-06 15:07 | 50.76487 | 10.29404 | 21773 ft | 391 kts | 237° |
| 2026-05-06 15:07 | 50.75054 | 10.25823 | 21776 ft | 391 kts | 237° |
| 2026-05-06 15:07 | 50.73599 | 10.22192 | 21385 ft | 391 kts | 237° |
| 2026-05-06 15:08 | 50.72155 | 10.18596 | 20858 ft | 386 kts | 237° |
| 2026-05-06 15:08 | 50.70723 | 10.15040 | 20386 ft | 383 kts | 237° |
| 2026-05-06 15:08 | 50.69280 | 10.11461 | 19905 ft | 380 kts | 237° |
| 2026-05-06 15:08 | 50.67885 | 10.07997 | 19448 ft | 378 kts | 237° |
| 2026-05-06 15:09 | 50.66477 | 10.04504 | 18983 ft | 376 kts | 237° |
| 2026-05-06 15:09 | 50.65078 | 10.01039 | 18522 ft | 374 kts | 237° |
| 2026-05-06 15:09 | 50.63685 | 9.97596 | 18072 ft | 372 kts | 236° |
| 2026-05-06 15:09 | 50.62300 | 9.94175 | 17577 ft | 369 kts | 236° |
| 2026-05-06 15:10 | 50.60922 | 9.90779 | 17134 ft | 367 kts | 236° |
| 2026-05-06 15:10 | 50.59549 | 9.87402 | 16693 ft | 365 kts | 236° |
| 2026-05-06 15:10 | 50.58186 | 9.84054 | 16267 ft | 363 kts | 236° |
| 2026-05-06 15:10 | 50.56824 | 9.80713 | 15839 ft | 361 kts | 237° |
| 2026-05-06 15:11 | 50.55470 | 9.77397 | 15397 ft | 359 kts | 237° |
| 2026-05-06 15:11 | 50.54123 | 9.74096 | 14948 ft | 358 kts | 237° |
| 2026-05-06 15:11 | 50.52776 | 9.70819 | 14507 ft | 356 kts | 236° |
| 2026-05-06 15:11 | 50.51428 | 9.67573 | 14064 ft | 354 kts | 236° |